createdAt,value
2022-08-17T00:00:43.569Z,65.64
2022-08-17T00:03:13.584Z,65.66
2022-08-17T00:05:45.312Z,65.74
2022-08-17T00:08:16.300Z,65.67
2022-08-17T00:10:46.839Z,65.70
2022-08-17T00:13:18.515Z,65.87
2022-08-17T00:15:47.558Z,65.92
2022-08-17T00:19:00.987Z,65.81
2022-08-17T00:21:10.573Z,65.83
2022-08-17T00:23:49.108Z,65.84
2022-08-17T00:26:34.540Z,65.84
2022-08-17T00:29:07.881Z,65.99
2022-08-17T00:31:36.935Z,66.02
2022-08-17T00:34:08.655Z,66.10
2022-08-17T00:36:37.203Z,66.12
2022-08-17T00:39:06.814Z,66.24
2022-08-17T00:41:35.434Z,66.23
2022-08-17T00:44:05.677Z,66.20
2022-08-17T00:46:37.620Z,66.30
2022-08-17T00:49:07.571Z,66.25
2022-08-17T00:51:42.580Z,66.23
2022-08-17T00:54:14.343Z,66.55
2022-08-17T00:56:47.511Z,66.55
2022-08-17T00:59:21.003Z,66.60
2022-08-17T01:01:51.950Z,66.79
2022-08-17T01:04:22.301Z,66.88
2022-08-17T01:06:52.520Z,66.90
2022-08-17T01:09:21.495Z,66.78
2022-08-17T01:11:51.645Z,66.88
2022-08-17T01:14:21.070Z,66.90
2022-08-17T01:16:53.415Z,67.06
2022-08-17T01:19:25.091Z,67.19
2022-08-17T01:22:00.641Z,67.22
2022-08-17T01:24:29.133Z,67.24
2022-08-17T01:26:57.790Z,67.15
2022-08-17T01:29:30.288Z,67.18
2022-08-17T01:32:03.560Z,67.14
2022-08-17T01:34:42.892Z,67.19
2022-08-17T01:37:15.025Z,67.22
2022-08-17T01:39:47.723Z,67.21
2022-08-17T01:42:23.631Z,67.43
2022-08-17T01:44:56.380Z,67.52
2022-08-17T01:47:24.985Z,67.55
2022-08-17T01:49:53.932Z,67.64
2022-08-17T01:52:23.287Z,67.71
2022-08-17T01:54:52.792Z,67.59
2022-08-17T01:57:21.192Z,67.80
2022-08-17T01:59:49.697Z,67.87
2022-08-17T02:02:30.631Z,67.82
2022-08-17T02:05:00.865Z,67.85
2022-08-17T02:07:29.403Z,67.91
2022-08-17T02:09:58.072Z,67.91
2022-08-17T02:12:38.557Z,68.03
2022-08-17T02:15:11.823Z,67.98
2022-08-17T02:17:40.490Z,68.00
2022-08-17T02:20:11.024Z,68.17
2022-08-17T02:22:42.793Z,68.13
2022-08-17T02:25:15.643Z,68.33
2022-08-17T02:27:44.118Z,68.56
2022-08-17T02:31:00.626Z,68.54
2022-08-17T02:33:06.380Z,68.61
2022-08-17T02:35:38.584Z,68.54
2022-08-17T02:38:08.163Z,68.51
2022-08-17T02:40:39.970Z,68.66
2022-08-17T02:43:09.124Z,68.69
2022-08-17T02:45:37.616Z,68.90
2022-08-17T02:48:06.319Z,68.99
2022-08-17T02:50:34.768Z,68.82
2022-08-17T02:53:04.761Z,69.04
2022-08-17T02:55:36.402Z,69.03
2022-08-17T02:58:05.834Z,69.07
2022-08-17T03:00:37.430Z,69.07
2022-08-17T03:03:07.213Z,69.24
2022-08-17T03:05:38.108Z,69.35
2022-08-17T03:08:07.862Z,69.34
2022-08-17T03:10:41.756Z,69.32
2022-08-17T03:13:10.186Z,69.40
2022-08-17T03:15:40.676Z,69.47
2022-08-17T03:18:19.123Z,69.55
2022-08-17T03:20:54.464Z,69.61
2022-08-17T03:23:24.210Z,69.34
2022-08-17T03:25:54.559Z,69.28
2022-08-17T03:28:24.117Z,69.33
2022-08-17T03:30:52.734Z,69.44
2022-08-17T03:33:21.678Z,69.46
2022-08-17T03:35:50.439Z,69.40
2022-08-17T03:38:19.391Z,69.53
2022-08-17T03:40:58.156Z,69.69
2022-08-17T03:43:30.317Z,69.65
2022-08-17T03:46:28.636Z,69.71
2022-08-17T03:49:22.958Z,69.68
2022-08-17T03:52:10.199Z,69.81
2022-08-17T03:54:57.391Z,69.62
2022-08-17T03:57:26.752Z,69.67
2022-08-17T03:59:55.966Z,69.65
2022-08-17T04:02:28.467Z,69.76
2022-08-17T04:04:57.594Z,69.88
2022-08-17T04:07:29.069Z,69.95
2022-08-17T04:09:58.806Z,69.98
2022-08-17T04:12:30.019Z,69.87
2022-08-17T04:14:58.774Z,69.93
2022-08-17T04:17:29.127Z,69.86
2022-08-17T04:19:58.023Z,69.78
2022-08-17T04:22:33.409Z,69.80
2022-08-17T04:25:06.849Z,69.58
2022-08-17T04:27:35.262Z,69.27
2022-08-17T04:30:06.340Z,69.29
2022-08-17T04:33:04.057Z,69.30
2022-08-17T04:35:38.373Z,69.49
2022-08-17T04:38:08.142Z,69.33
2022-08-17T04:40:54.991Z,69.26
2022-08-17T04:43:26.044Z,68.92
2022-08-17T04:45:57.228Z,68.46
2022-08-17T04:48:36.522Z,68.18
2022-08-17T04:51:10.530Z,68.11
2022-08-17T04:53:40.773Z,67.61
2022-08-17T04:56:16.240Z,67.35
2022-08-17T04:58:47.504Z,66.68
2022-08-17T05:01:16.685Z,66.53
2022-08-17T05:03:53.819Z,66.26
2022-08-17T05:06:23.532Z,66.08
2022-08-17T05:08:53.035Z,65.96
2022-08-17T05:11:25.465Z,65.51
2022-08-17T05:13:55.060Z,65.28
2022-08-17T05:16:25.186Z,64.84
2022-08-17T05:18:58.684Z,64.64
2022-08-17T05:21:28.303Z,64.30
2022-08-17T05:23:58.266Z,64.00
2022-08-17T05:26:28.812Z,63.28
2022-08-17T05:29:02.450Z,62.70
2022-08-17T05:31:32.796Z,62.37
2022-08-17T05:34:01.607Z,62.41
2022-08-17T05:36:37.844Z,62.17
2022-08-17T05:39:17.117Z,61.95
2022-08-17T05:41:49.306Z,61.80
2022-08-17T05:44:20.898Z,61.32
2022-08-17T05:46:53.839Z,60.89
2022-08-17T05:49:29.388Z,60.79
2022-08-17T05:52:23.913Z,60.73
2022-08-17T05:55:05.009Z,60.19
2022-08-17T05:57:53.367Z,59.56
2022-08-17T06:00:30.763Z,58.73
2022-08-17T06:03:16.384Z,58.59
2022-08-17T06:05:58.900Z,58.57
2022-08-17T06:08:41.958Z,58.59
2022-08-17T06:11:37.330Z,58.17
2022-08-17T06:14:17.890Z,58.29
2022-08-17T06:16:53.815Z,58.51
2022-08-17T06:19:29.942Z,58.28
2022-08-17T06:22:02.995Z,58.15
2022-08-17T06:24:56.458Z,58.39
2022-08-17T06:27:35.844Z,58.15
2022-08-17T06:30:13.080Z,57.77
2022-08-17T06:32:44.659Z,57.45
2022-08-17T06:35:21.571Z,57.51
2022-08-17T06:38:02.141Z,57.44
2022-08-17T06:40:54.834Z,57.67
2022-08-17T06:43:58.008Z,57.67
2022-08-17T06:47:12.456Z,57.59
2022-08-17T06:50:21.786Z,57.62
2022-08-17T06:53:32.251Z,57.17
2022-08-17T06:56:53.980Z,57.06
2022-08-17T06:59:55.270Z,56.46
2022-08-17T07:03:14.260Z,55.18
2022-08-17T07:06:00.407Z,54.05
2022-08-17T07:09:00.083Z,53.18
2022-08-17T07:11:52.966Z,52.88
2022-08-17T07:14:58.773Z,52.09
2022-08-17T07:17:47.669Z,51.19
2022-08-17T07:20:28.425Z,50.84
2022-08-17T07:23:17.902Z,50.37
2022-08-17T07:26:26.817Z,50.32
2022-08-17T07:29:28.751Z,49.52
2022-08-17T07:32:20.023Z,48.63
2022-08-17T07:35:20.566Z,47.72
2022-08-17T07:38:25.583Z,47.74
2022-08-17T07:41:23.657Z,47.70
2022-08-17T07:44:17.691Z,47.24
2022-08-17T07:47:23.574Z,47.24
2022-08-17T07:50:02.267Z,47.67
2022-08-17T07:53:03.677Z,47.65
2022-08-17T07:55:42.838Z,47.98
2022-08-17T07:58:52.672Z,47.96
2022-08-17T08:01:41.033Z,47.63
2022-08-17T08:08:33.867Z,47.51
2022-08-17T08:11:36.995Z,48.12
2022-08-17T08:14:34.580Z,49.33
2022-08-17T08:17:35.746Z,48.86
2022-08-17T08:20:51.745Z,48.25
2022-08-17T08:23:49.233Z,47.86
2022-08-17T08:26:25.915Z,47.25
2022-08-17T08:29:13.053Z,46.71
2022-08-17T08:31:58.583Z,46.41
2022-08-17T08:35:00.495Z,46.26
2022-08-17T08:37:42.719Z,47.66
2022-08-17T08:40:25.622Z,47.07
2022-08-17T08:43:03.100Z,46.81
2022-08-17T08:45:38.235Z,46.34
2022-08-17T08:48:45.949Z,46.43
2022-08-17T08:51:16.803Z,46.45
2022-08-17T08:53:57.153Z,46.45
2022-08-17T08:57:11.952Z,46.48
2022-08-17T08:59:54.123Z,46.63
2022-08-17T09:02:45.415Z,47.04
2022-08-17T09:05:25.672Z,46.89
2022-08-17T09:08:03.478Z,47.20
2022-08-17T09:10:44.794Z,47.16
2022-08-17T09:13:22.376Z,47.25
2022-08-17T09:15:58.638Z,47.59
2022-08-17T09:19:02.159Z,47.28
2022-08-17T09:21:28.680Z,47.17
2022-08-17T09:24:12.223Z,47.14
2022-08-17T09:26:49.166Z,47.64
2022-08-17T09:29:23.858Z,47.75
2022-08-17T09:31:56.601Z,48.36
2022-08-17T09:34:33.206Z,48.05
2022-08-17T09:37:18.274Z,48.37
2022-08-17T09:39:48.822Z,48.23
2022-08-17T09:42:23.777Z,48.07
2022-08-17T09:45:03.008Z,48.40
2022-08-17T09:47:36.286Z,47.95
2022-08-17T09:50:14.407Z,47.67
2022-08-17T09:52:44.180Z,47.32
2022-08-17T09:55:12.945Z,47.51
2022-08-17T09:58:04.385Z,47.52
2022-08-17T10:00:37.052Z,47.69
2022-08-17T10:03:27.947Z,47.12
2022-08-17T10:06:02.515Z,46.97
2022-08-17T10:08:44.566Z,47.56
2022-08-17T10:11:33.844Z,48.04
2022-08-17T10:14:36.950Z,48.81
2022-08-17T10:17:07.930Z,48.66
2022-08-17T10:19:40.326Z,48.63
2022-08-17T10:22:41.860Z,48.39
2022-08-17T10:25:53.547Z,48.02
2022-08-17T10:28:30.080Z,48.23
2022-08-17T10:31:33.299Z,48.13
2022-08-17T10:34:05.222Z,48.19
2022-08-17T10:36:45.528Z,48.30
2022-08-17T10:39:27.682Z,48.44
2022-08-17T10:42:00.529Z,48.48
2022-08-17T10:44:44.905Z,48.34
2022-08-17T10:47:15.194Z,48.44
2022-08-17T10:49:49.368Z,48.20
2022-08-17T10:52:49.428Z,48.64
2022-08-17T10:55:20.179Z,47.96
2022-08-17T10:57:50.797Z,47.86
2022-08-17T11:00:53.359Z,48.20
2022-08-17T11:03:24.970Z,47.74
2022-08-17T11:06:05.863Z,48.04
2022-08-17T11:08:57.239Z,47.99
2022-08-17T11:12:07.306Z,48.04
2022-08-17T11:14:49.607Z,47.88
2022-08-17T11:17:36.511Z,48.38
2022-08-17T11:20:34.233Z,48.10
2022-08-17T11:23:40.122Z,48.39
2022-08-17T11:26:25.418Z,48.03
2022-08-17T11:29:00.187Z,48.35
2022-08-17T11:31:38.295Z,48.50
2022-08-17T11:34:17.985Z,48.31
2022-08-17T11:37:20.716Z,48.42
2022-08-17T11:40:20.300Z,47.71
2022-08-17T11:43:25.586Z,47.88
2022-08-17T11:46:14.047Z,47.45
2022-08-17T11:49:16.470Z,47.52
2022-08-17T11:52:14.744Z,47.85
2022-08-17T11:54:46.575Z,48.05
2022-08-17T11:58:05.853Z,48.03
2022-08-17T12:00:59.419Z,48.33
2022-08-17T12:03:55.359Z,47.92
2022-08-17T12:06:33.198Z,47.56
2022-08-17T12:09:10.847Z,47.31
2022-08-17T12:11:56.324Z,47.26
2022-08-17T12:15:08.380Z,47.87
2022-08-17T12:17:40.717Z,47.88
2022-08-17T12:20:21.625Z,47.81
2022-08-17T12:23:00.815Z,47.94
2022-08-17T12:25:33.935Z,47.97
2022-08-17T12:28:06.458Z,48.32
2022-08-17T12:30:37.906Z,48.29
2022-08-17T12:33:13.516Z,48.19
2022-08-17T12:36:02.273Z,47.94
2022-08-17T12:38:33.967Z,47.97
2022-08-17T12:41:25.106Z,48.05
2022-08-17T12:44:00.878Z,47.57
2022-08-17T12:46:33.076Z,47.62
2022-08-17T12:49:19.054Z,47.79
2022-08-17T12:51:48.312Z,47.52
2022-08-17T12:54:31.353Z,47.50
2022-08-17T12:57:05.566Z,47.71
2022-08-17T12:59:33.857Z,47.92
2022-08-17T13:02:02.782Z,48.27
2022-08-17T13:04:32.295Z,48.08
2022-08-17T13:07:00.684Z,48.32
2022-08-17T13:09:35.257Z,48.48
2022-08-17T13:12:08.833Z,48.39
2022-08-17T13:14:37.883Z,48.40
2022-08-17T13:17:13.142Z,48.23
2022-08-17T13:19:51.366Z,48.16
2022-08-17T13:22:23.996Z,48.48
2022-08-17T13:24:54.842Z,48.37
2022-08-17T13:27:25.846Z,48.34
2022-08-17T13:29:58.192Z,48.08
2022-08-17T13:32:43.739Z,48.42
2022-08-17T13:35:49.986Z,48.60
2022-08-17T13:38:39.875Z,48.60
2022-08-17T13:41:08.248Z,48.44
2022-08-17T13:43:49.947Z,48.24
2022-08-17T13:46:26.124Z,48.25
2022-08-17T13:49:04.365Z,48.20
2022-08-17T13:51:36.103Z,47.97
2022-08-17T13:54:18.588Z,47.93
2022-08-17T13:57:01.953Z,47.68
2022-08-17T13:59:54.395Z,47.55
2022-08-17T14:02:26.062Z,47.61
2022-08-17T14:05:00.045Z,47.34
2022-08-17T14:07:33.169Z,47.36
2022-08-17T14:10:05.302Z,47.38
2022-08-17T14:12:37.323Z,47.65
2022-08-17T14:15:08.609Z,47.58
2022-08-17T14:17:39.017Z,47.74
2022-08-17T14:20:11.901Z,47.92
2022-08-17T14:22:45.645Z,47.71
2022-08-17T14:25:16.961Z,47.86
2022-08-17T14:27:52.829Z,47.82
2022-08-17T14:30:29.814Z,47.71
2022-08-17T14:33:01.513Z,47.57
2022-08-17T14:35:30.522Z,47.49
2022-08-17T14:37:59.031Z,47.56
2022-08-17T14:40:27.870Z,47.37
2022-08-17T14:42:57.584Z,47.26
2022-08-17T14:45:30.023Z,47.36
2022-08-17T14:48:04.162Z,47.47
2022-08-17T14:50:35.271Z,47.52
2022-08-17T14:53:06.614Z,47.75
2022-08-17T14:55:36.270Z,47.78
2022-08-17T14:58:05.298Z,47.88
2022-08-17T15:00:34.345Z,48.01
2022-08-17T15:03:03.535Z,48.30
2022-08-17T15:05:35.856Z,48.30
2022-08-17T15:08:08.362Z,48.37
2022-08-17T15:10:37.134Z,48.33
2022-08-17T15:13:10.371Z,48.37
2022-08-17T15:15:39.165Z,48.63
2022-08-17T15:18:07.721Z,48.57
2022-08-17T15:20:36.489Z,48.52
2022-08-17T15:23:06.396Z,48.61
2022-08-17T15:25:35.532Z,48.67
2022-08-17T15:28:06.796Z,48.66
2022-08-17T15:30:37.867Z,48.77
2022-08-17T15:33:06.232Z,48.80
2022-08-17T15:35:35.488Z,48.80
2022-08-17T15:38:11.697Z,48.87
2022-08-17T15:40:44.289Z,48.76
2022-08-17T15:43:15.862Z,48.83
2022-08-17T15:45:44.971Z,48.97
2022-08-17T15:48:40.990Z,49.27
2022-08-17T15:51:16.902Z,48.97
2022-08-17T15:53:47.385Z,49.04
2022-08-17T15:56:16.962Z,49.18
2022-08-17T15:58:46.895Z,49.17
2022-08-17T16:02:15.425Z,49.22
2022-08-17T16:04:30.314Z,49.28
2022-08-17T16:06:55.783Z,49.43
2022-08-17T16:09:24.186Z,49.58
2022-08-17T16:11:55.741Z,49.47
2022-08-17T16:14:25.763Z,49.53
2022-08-17T16:17:02.405Z,49.53
2022-08-17T16:19:32.008Z,49.73
2022-08-17T16:22:00.713Z,49.59
2022-08-17T16:24:29.848Z,49.71
2022-08-17T16:26:58.834Z,49.73
2022-08-17T16:29:27.486Z,49.59
2022-08-17T16:31:57.148Z,49.43
2022-08-17T16:34:26.616Z,49.32
2022-08-17T16:36:56.533Z,49.34
2022-08-17T16:39:30.131Z,49.66
2022-08-17T16:42:02.441Z,49.57
2022-08-17T16:44:31.673Z,49.66
2022-08-17T16:47:00.803Z,49.75
2022-08-17T16:49:37.344Z,49.70
2022-08-17T16:52:14.021Z,49.71
2022-08-17T16:55:02.433Z,49.86
2022-08-17T16:57:31.259Z,50.06
2022-08-17T16:59:59.481Z,50.13
2022-08-17T17:02:38.465Z,50.17
2022-08-17T17:05:13.607Z,50.24
2022-08-17T17:07:58.406Z,50.26
2022-08-17T17:10:35.675Z,50.47
2022-08-17T17:13:13.297Z,50.55
2022-08-17T17:15:57.342Z,50.78
2022-08-17T17:18:36.787Z,50.92
2022-08-17T17:21:10.060Z,50.96
2022-08-17T17:23:47.115Z,51.08
2022-08-17T17:26:34.090Z,51.12
2022-08-17T17:29:26.616Z,51.12
2022-08-17T17:32:04.564Z,51.34
2022-08-17T17:34:35.311Z,51.52
2022-08-17T17:37:12.697Z,51.38
2022-08-17T17:39:48.894Z,51.38
2022-08-17T17:42:21.640Z,51.67
2022-08-17T17:44:59.923Z,51.76
2022-08-17T17:47:30.387Z,51.88
2022-08-17T17:50:01.326Z,51.98
2022-08-17T17:52:37.757Z,51.98
2022-08-17T17:55:16.520Z,52.46
2022-08-17T17:57:56.000Z,52.41
2022-08-17T18:00:30.921Z,52.60
2022-08-17T18:03:16.588Z,52.79
2022-08-17T18:06:03.889Z,52.83
2022-08-17T18:08:49.026Z,52.97
2022-08-17T18:11:36.444Z,53.18
2022-08-17T18:14:19.526Z,53.14
2022-08-17T18:16:53.746Z,53.35
2022-08-17T18:19:25.039Z,53.32
2022-08-17T18:22:01.575Z,53.48
2022-08-17T18:24:33.452Z,53.60
2022-08-17T18:27:08.692Z,54.02
2022-08-17T18:29:46.803Z,54.11
2022-08-17T18:32:21.565Z,54.24
2022-08-17T18:34:50.408Z,54.39
2022-08-17T18:37:33.093Z,54.81
2022-08-17T18:40:23.917Z,54.86
2022-08-17T18:43:10.699Z,54.83
2022-08-17T18:45:43.026Z,54.91
2022-08-17T18:48:28.037Z,55.13
2022-08-17T18:51:00.092Z,55.24
2022-08-17T18:53:40.378Z,55.30
2022-08-17T18:56:31.356Z,55.50
2022-08-17T18:59:22.488Z,55.67
2022-08-17T19:02:10.226Z,55.66
2022-08-17T19:04:57.311Z,55.96
2022-08-17T19:07:29.692Z,56.06
2022-08-17T19:10:06.810Z,55.92
2022-08-17T19:12:43.540Z,56.24
2022-08-17T19:15:17.106Z,56.25
2022-08-17T19:17:52.933Z,56.28
2022-08-17T19:20:30.684Z,56.22
2022-08-17T19:23:11.873Z,56.45
2022-08-17T19:25:47.769Z,56.44
2022-08-17T19:28:23.345Z,56.52
2022-08-17T19:30:56.715Z,56.55
2022-08-17T19:33:27.810Z,56.54
2022-08-17T19:36:05.725Z,56.55
2022-08-17T19:38:44.724Z,56.49
2022-08-17T19:41:26.231Z,56.71
2022-08-17T19:44:12.444Z,56.40
2022-08-17T19:46:59.517Z,56.59
2022-08-17T19:49:41.646Z,56.66
2022-08-17T19:52:37.299Z,56.67
2022-08-17T19:55:20.234Z,57.03
2022-08-17T19:58:02.276Z,56.79
2022-08-17T20:00:33.976Z,56.84
2022-08-17T20:03:08.425Z,56.93
2022-08-17T20:06:01.467Z,56.93
2022-08-17T20:08:34.704Z,57.01
2022-08-17T20:11:09.906Z,56.78
2022-08-17T20:13:42.854Z,57.10
2022-08-17T20:16:14.049Z,56.94
2022-08-17T20:18:55.311Z,56.98
2022-08-17T20:21:29.155Z,56.93
2022-08-17T20:24:04.776Z,56.95
2022-08-17T20:26:49.136Z,57.09
2022-08-17T20:29:37.013Z,57.23
2022-08-17T20:32:22.240Z,57.09
2022-08-17T20:35:05.488Z,57.30
2022-08-17T20:37:42.430Z,57.22
2022-08-17T20:40:25.674Z,57.13
2022-08-17T20:42:55.083Z,57.23
2022-08-17T20:46:02.697Z,57.37
2022-08-17T20:48:39.003Z,57.35
2022-08-17T20:51:25.388Z,57.51
2022-08-17T20:54:37.459Z,57.33
2022-08-17T20:57:14.076Z,57.44
2022-08-17T21:00:13.424Z,57.55
2022-08-17T21:02:44.373Z,57.52
2022-08-17T21:05:32.098Z,57.68
2022-08-17T21:08:15.362Z,57.66
2022-08-17T21:10:46.239Z,57.73
2022-08-17T21:13:57.694Z,57.83
2022-08-17T21:16:38.186Z,57.76
2022-08-17T21:19:30.921Z,58.06
2022-08-17T21:22:13.786Z,57.98
2022-08-17T21:24:55.852Z,57.64
2022-08-17T21:27:37.305Z,57.68
2022-08-17T21:30:48.928Z,57.88
2022-08-17T21:33:26.489Z,58.17
2022-08-17T21:36:23.054Z,58.16
2022-08-17T21:39:01.744Z,58.21
2022-08-17T21:41:33.547Z,58.50
2022-08-17T21:44:20.977Z,58.32
2022-08-17T21:46:52.696Z,58.31
2022-08-17T21:49:27.997Z,58.35
2022-08-17T21:51:57.566Z,58.27
2022-08-17T21:54:34.965Z,58.16
2022-08-17T21:57:06.243Z,58.31
2022-08-17T21:59:37.923Z,58.04
2022-08-17T22:02:08.672Z,58.33
2022-08-17T22:04:41.286Z,58.32
2022-08-17T22:07:12.685Z,58.28
2022-08-17T22:09:45.169Z,58.23
2022-08-17T22:12:18.046Z,58.18
2022-08-17T22:14:59.823Z,58.11
2022-08-17T22:17:35.458Z,57.95
2022-08-17T22:20:13.676Z,58.30
2022-08-17T22:23:30.507Z,58.15
2022-08-17T22:26:01.402Z,58.45
2022-08-17T22:28:43.256Z,58.61
2022-08-17T22:31:14.469Z,58.47
2022-08-17T22:33:48.356Z,58.52
2022-08-17T22:36:29.025Z,58.72
2022-08-17T22:38:59.680Z,58.73
2022-08-17T22:41:49.907Z,58.85
2022-08-17T22:44:24.059Z,58.85
2022-08-17T22:47:06.921Z,58.91
2022-08-17T22:49:53.767Z,59.13
2022-08-17T22:52:32.317Z,59.08
2022-08-17T22:55:24.735Z,59.25
2022-08-17T22:58:13.987Z,59.23
2022-08-17T23:00:44.598Z,59.30
2022-08-17T23:03:17.283Z,59.42
2022-08-17T23:06:02.046Z,59.43
2022-08-17T23:08:31.623Z,59.44
2022-08-17T23:11:00.566Z,59.60
2022-08-17T23:13:32.783Z,59.69
2022-08-17T23:16:01.972Z,59.61
2022-08-17T23:18:30.373Z,59.70
2022-08-17T23:20:59.498Z,59.89
2022-08-17T23:23:28.002Z,60.00
2022-08-17T23:25:56.458Z,59.96
2022-08-17T23:28:24.810Z,60.11
2022-08-17T23:30:53.199Z,60.24
2022-08-17T23:33:29.298Z,60.37
2022-08-17T23:36:01.027Z,60.44
2022-08-17T23:38:31.256Z,60.52
2022-08-17T23:41:03.829Z,60.64
2022-08-17T23:46:23.853Z,60.74
2022-08-17T23:48:52.931Z,60.97
2022-08-17T23:51:25.216Z,60.96
2022-08-17T23:54:07.921Z,60.99
2022-08-17T23:56:43.229Z,61.08
2022-08-17T23:59:12.758Z,61.19
